createdAt,value
2022-10-01T00:02:10.803Z,13.70
2022-10-01T00:04:39.687Z,13.70
2022-10-01T00:07:11.049Z,13.70
2022-10-01T00:09:39.807Z,13.80
2022-10-01T00:12:09.725Z,13.80
2022-10-01T00:14:39.667Z,13.80
2022-10-01T00:17:08.180Z,13.80
2022-10-01T00:19:36.742Z,13.80
2022-10-01T00:22:05.422Z,13.70
2022-10-01T00:24:34.066Z,13.80
2022-10-01T00:27:02.695Z,13.80
2022-10-01T00:29:32.754Z,13.80
2022-10-01T00:32:02.182Z,13.80
2022-10-01T00:34:31.246Z,13.80
2022-10-01T00:36:59.856Z,13.80
2022-10-01T00:39:28.777Z,13.80
2022-10-01T00:41:57.393Z,13.80
2022-10-01T00:44:35.385Z,13.80
2022-10-01T00:47:22.510Z,13.80
2022-10-01T00:49:59.329Z,13.80
2022-10-01T00:52:33.541Z,13.80
2022-10-01T00:55:09.631Z,13.80
2022-10-01T00:57:38.239Z,13.80
2022-10-01T01:00:13.259Z,13.80
2022-10-01T01:02:42.101Z,13.80
2022-10-01T01:05:13.709Z,13.80
2022-10-01T01:07:46.590Z,13.80
2022-10-01T01:10:20.284Z,13.80
2022-10-01T01:13:03.495Z,13.80
2022-10-01T01:15:42.610Z,13.80
2022-10-01T01:18:22.412Z,13.80
2022-10-01T01:21:08.011Z,13.70
2022-10-01T01:24:10.443Z,13.50
2022-10-01T01:26:56.069Z,13.30
2022-10-01T01:29:36.017Z,13.30
2022-10-01T01:32:15.049Z,13.40
2022-10-01T01:34:50.150Z,13.50
2022-10-01T01:37:24.188Z,13.50
2022-10-01T01:39:57.500Z,13.60
2022-10-01T01:42:37.286Z,13.60
2022-10-01T01:45:13.770Z,13.60
2022-10-01T01:47:44.738Z,13.60
2022-10-01T01:50:16.876Z,13.70
2022-10-01T01:52:46.033Z,13.70
2022-10-01T01:55:15.319Z,13.70
2022-10-01T01:57:45.790Z,13.60
2022-10-01T02:00:16.073Z,13.60
2022-10-01T02:02:51.624Z,13.50
2022-10-01T02:05:25.607Z,13.50
2022-10-01T02:08:27.821Z,13.50
2022-10-01T02:11:23.626Z,13.40
2022-10-01T02:14:09.308Z,13.50
2022-10-01T02:16:51.559Z,13.50
2022-10-01T02:19:29.712Z,13.30
2022-10-01T02:22:02.814Z,13.30
2022-10-01T02:24:40.876Z,13.20
2022-10-01T02:27:16.792Z,13.20
2022-10-01T02:29:47.398Z,13.20
2022-10-01T02:32:20.036Z,13.30
2022-10-01T02:34:52.097Z,13.30
2022-10-01T02:37:24.877Z,13.30
2022-10-01T02:39:56.955Z,13.30
2022-10-01T02:42:29.929Z,13.40
2022-10-01T02:45:02.522Z,13.40
2022-10-01T02:47:38.755Z,13.30
2022-10-01T02:50:10.648Z,13.30
2022-10-01T02:52:47.024Z,13.30
2022-10-01T02:55:20.375Z,13.30
2022-10-01T02:57:48.082Z,13.30
2022-10-01T03:00:21.437Z,13.40
2022-10-01T03:02:52.131Z,13.40
2022-10-01T03:05:21.283Z,13.40
2022-10-01T03:07:50.362Z,13.40
2022-10-01T03:10:19.933Z,13.40
2022-10-01T03:12:51.107Z,13.30
2022-10-01T03:15:20.813Z,13.30
2022-10-01T03:17:54.312Z,13.40
2022-10-01T03:20:23.646Z,13.40
2022-10-01T03:22:52.545Z,13.40
2022-10-01T03:25:21.193Z,13.40
2022-10-01T03:27:49.806Z,13.40
2022-10-01T03:30:18.633Z,13.40
2022-10-01T03:32:47.177Z,13.40
2022-10-01T03:35:17.277Z,13.50
2022-10-01T03:37:47.736Z,13.50
2022-10-01T03:40:16.393Z,13.50
2022-10-01T03:42:44.956Z,13.50
2022-10-01T03:45:14.106Z,13.60
2022-10-01T03:47:42.674Z,13.60
2022-10-01T03:50:11.377Z,13.60
2022-10-01T03:52:42.240Z,13.60
2022-10-01T03:55:11.245Z,13.60
2022-10-01T03:57:39.986Z,13.60
2022-10-01T04:00:12.133Z,13.60
2022-10-01T04:02:40.940Z,13.60
2022-10-01T04:05:10.496Z,13.70
2022-10-01T04:07:42.640Z,13.70
2022-10-01T04:10:11.915Z,13.70
2022-10-01T04:12:40.614Z,13.60
2022-10-01T04:15:10.527Z,13.50
2022-10-01T04:17:42.643Z,13.50
2022-10-01T04:20:13.795Z,13.60
2022-10-01T04:22:44.663Z,13.60
2022-10-01T04:25:14.079Z,13.60
2022-10-01T04:27:44.589Z,13.60
2022-10-01T04:30:13.329Z,13.60
2022-10-01T04:32:41.939Z,13.60
2022-10-01T04:35:11.677Z,13.60
2022-10-01T04:37:40.351Z,13.60
2022-10-01T04:40:11.878Z,13.60
2022-10-01T04:42:43.690Z,13.60
2022-10-01T04:45:13.610Z,13.60
2022-10-01T04:47:50.251Z,13.60
2022-10-01T04:50:20.313Z,13.60
2022-10-01T04:52:48.858Z,13.60
2022-10-01T04:55:21.301Z,13.60
2022-10-01T04:57:50.216Z,13.60
2022-10-01T05:00:24.548Z,13.60
2022-10-01T05:02:54.392Z,13.60
2022-10-01T05:05:27.357Z,13.60
2022-10-01T05:07:55.913Z,13.70
2022-10-01T05:10:26.251Z,13.60
2022-10-01T05:12:54.939Z,13.70
2022-10-01T05:15:23.822Z,13.70
2022-10-01T05:17:52.341Z,13.70
2022-10-01T05:20:23.539Z,13.70
2022-10-01T05:22:52.112Z,13.80
2022-10-01T05:25:21.768Z,13.80
2022-10-01T05:27:51.727Z,13.70
2022-10-01T05:30:24.378Z,13.70
2022-10-01T05:32:57.885Z,13.70
2022-10-01T05:35:27.190Z,13.80
2022-10-01T05:37:57.489Z,13.70
2022-10-01T05:40:27.459Z,13.70
2022-10-01T05:42:59.948Z,13.80
2022-10-01T05:45:30.212Z,13.80
2022-10-01T05:48:00.730Z,13.80
2022-10-01T05:50:31.635Z,13.80
2022-10-01T05:53:00.937Z,13.80
2022-10-01T05:55:34.776Z,13.80
2022-10-01T05:58:07.534Z,13.80
2022-10-01T06:00:37.080Z,13.80
2022-10-01T06:03:07.339Z,13.80
2022-10-01T06:05:38.536Z,13.80
2022-10-01T06:08:09.775Z,13.90
2022-10-01T06:10:39.308Z,13.90
2022-10-01T06:13:09.523Z,13.90
2022-10-01T06:15:40.328Z,13.90
2022-10-01T06:18:12.199Z,13.90
2022-10-01T06:20:41.994Z,13.90
2022-10-01T06:23:14.994Z,14.00
2022-10-01T06:25:44.801Z,14.00
2022-10-01T06:28:15.707Z,14.00
2022-10-01T06:30:44.529Z,13.90
2022-10-01T06:33:16.139Z,14.00
2022-10-01T06:35:47.964Z,14.00
2022-10-01T06:38:19.908Z,14.10
2022-10-01T06:40:54.438Z,14.10
2022-10-01T06:43:26.315Z,14.00
2022-10-01T06:45:56.142Z,14.10
2022-10-01T06:48:25.142Z,14.10
2022-10-01T06:50:53.792Z,14.10
2022-10-01T06:53:22.390Z,14.10
2022-10-01T06:55:51.213Z,14.10
2022-10-01T06:58:22.807Z,14.20
2022-10-01T07:00:52.880Z,14.30
2022-10-01T07:03:23.288Z,14.40
2022-10-01T07:05:52.314Z,14.50
2022-10-01T07:08:21.541Z,14.50
2022-10-01T07:10:50.076Z,14.60
2022-10-01T07:13:21.730Z,14.60
2022-10-01T07:15:50.366Z,14.60
2022-10-01T07:18:20.268Z,14.60
2022-10-01T07:20:48.865Z,14.60
2022-10-01T07:23:17.824Z,14.60
2022-10-01T07:25:47.221Z,14.60
2022-10-01T07:28:20.557Z,14.60
2022-10-01T07:31:01.010Z,14.70
2022-10-01T07:33:31.263Z,14.80
2022-10-01T07:36:02.805Z,14.80
2022-10-01T07:38:33.451Z,14.90
2022-10-01T07:41:03.577Z,14.80
2022-10-01T07:43:34.740Z,14.70
2022-10-01T07:46:05.722Z,14.80
2022-10-01T07:48:35.811Z,14.80
2022-10-01T07:51:04.529Z,15.00
2022-10-01T07:53:33.076Z,15.10
2022-10-01T07:56:02.884Z,15.10
2022-10-01T07:58:31.576Z,15.10
2022-10-01T08:01:04.859Z,15.20
2022-10-01T08:03:33.509Z,15.20
2022-10-01T08:06:05.926Z,15.50
2022-10-01T08:08:34.932Z,15.80
2022-10-01T08:11:04.360Z,16.50
2022-10-01T08:13:34.119Z,16.90
2022-10-01T08:16:06.408Z,17.20
2022-10-01T08:18:35.299Z,17.10
2022-10-01T08:21:05.951Z,17.40
2022-10-01T08:23:35.144Z,17.60
2022-10-01T08:26:07.304Z,17.60
2022-10-01T08:28:36.500Z,17.70
2022-10-01T08:31:09.137Z,17.70
2022-10-01T08:33:38.554Z,17.90
2022-10-01T08:36:09.602Z,18.00
2022-10-01T08:38:40.298Z,17.90
2022-10-01T08:41:28.823Z,17.70
2022-10-01T08:43:58.932Z,17.60
2022-10-01T08:46:35.183Z,17.40
2022-10-01T08:49:13.610Z,17.30
2022-10-01T08:51:51.146Z,17.30
2022-10-01T08:54:35.967Z,17.30
2022-10-01T08:57:12.849Z,17.40
2022-10-01T08:59:45.662Z,17.60
2022-10-01T09:02:27.162Z,17.90
2022-10-01T09:05:01.983Z,18.10
2022-10-01T09:07:58.270Z,18.00
2022-10-01T09:10:45.739Z,17.90
2022-10-01T09:13:51.648Z,17.90
2022-10-01T09:16:26.629Z,17.80
2022-10-01T09:19:18.501Z,17.60
2022-10-01T09:21:58.578Z,17.50
2022-10-01T09:24:44.463Z,17.50
2022-10-01T09:27:17.920Z,17.30
2022-10-01T09:29:53.578Z,17.40
2022-10-01T09:32:28.473Z,17.30
2022-10-01T09:35:04.446Z,17.20
2022-10-01T09:37:45.906Z,17.20
2022-10-01T09:40:24.705Z,17.10
2022-10-01T09:42:53.727Z,16.90
2022-10-01T09:45:25.023Z,16.80
2022-10-01T09:48:03.257Z,16.80
2022-10-01T09:50:41.268Z,16.70
2022-10-01T09:53:19.580Z,16.70
2022-10-01T09:55:57.103Z,16.70
2022-10-01T09:58:29.259Z,16.60
2022-10-01T10:00:59.987Z,16.50
2022-10-01T10:03:31.516Z,16.50
2022-10-01T10:06:01.920Z,16.60
2022-10-01T10:08:35.496Z,16.60
2022-10-01T10:11:11.249Z,16.70
2022-10-01T10:13:43.513Z,16.70
2022-10-01T10:16:23.920Z,16.70
2022-10-01T10:18:54.187Z,16.80
2022-10-01T10:21:27.595Z,16.80
2022-10-01T10:23:59.316Z,16.80
2022-10-01T10:26:33.915Z,16.70
2022-10-01T10:29:05.406Z,16.60
2022-10-01T10:31:43.461Z,16.70
2022-10-01T10:34:19.172Z,16.80
2022-10-01T10:36:50.841Z,16.80
2022-10-01T10:39:24.624Z,16.90
2022-10-01T10:41:56.168Z,17.00
2022-10-01T10:44:30.373Z,17.00
2022-10-01T10:47:04.040Z,17.00
2022-10-01T10:49:39.805Z,16.90
2022-10-01T10:52:23.791Z,16.90
2022-10-01T10:54:53.598Z,16.90
2022-10-01T10:57:28.116Z,17.00
2022-10-01T10:59:59.299Z,17.00
2022-10-01T11:02:31.191Z,17.00
2022-10-01T11:05:04.599Z,17.00
2022-10-01T11:07:33.605Z,17.00
2022-10-01T11:10:35.587Z,17.10
2022-10-01T11:13:46.198Z,17.10
2022-10-01T11:16:44.533Z,17.10
2022-10-01T11:19:36.367Z,17.10
2022-10-01T11:22:42.483Z,17.10
2022-10-01T11:25:34.880Z,17.00
2022-10-01T11:28:23.248Z,17.10
2022-10-01T11:31:06.440Z,17.20
2022-10-01T11:33:51.862Z,17.10
2022-10-01T11:36:30.820Z,17.20
2022-10-01T11:39:04.081Z,17.20
2022-10-01T11:41:40.534Z,17.30
2022-10-01T11:44:22.291Z,17.30
2022-10-01T11:46:59.697Z,17.30
2022-10-01T11:49:56.712Z,17.40
2022-10-01T11:52:38.374Z,17.50
2022-10-01T11:55:37.496Z,17.60
2022-10-01T11:58:34.509Z,17.60
2022-10-01T12:01:12.942Z,17.60
2022-10-01T12:03:57.701Z,17.70
2022-10-01T12:06:34.476Z,17.70
2022-10-01T12:09:15.497Z,17.70
2022-10-01T12:11:52.873Z,17.60
2022-10-01T12:14:31.492Z,17.50
2022-10-01T12:17:13.579Z,17.50
2022-10-01T12:19:50.529Z,17.60
2022-10-01T12:22:25.790Z,17.60
2022-10-01T12:24:54.970Z,17.70
2022-10-01T12:27:39.965Z,17.60
2022-10-01T12:30:13.839Z,17.60
2022-10-01T12:33:04.952Z,17.70
2022-10-01T12:35:53.332Z,17.70
2022-10-01T12:38:40.687Z,17.70
2022-10-01T12:41:30.088Z,17.80
2022-10-01T12:44:29.272Z,17.80
2022-10-01T12:47:16.042Z,17.80
2022-10-01T12:49:56.414Z,17.70
2022-10-01T12:52:41.074Z,17.80
2022-10-01T12:55:48.587Z,17.70
2022-10-01T12:58:41.102Z,17.70
2022-10-01T13:01:31.859Z,17.70
2022-10-01T13:04:44.656Z,17.70
2022-10-01T13:07:39.208Z,17.70
2022-10-01T13:10:29.707Z,17.70
2022-10-01T13:13:07.864Z,17.70
2022-10-01T13:15:40.423Z,17.80
2022-10-01T13:18:27.161Z,17.80
2022-10-01T13:21:07.150Z,17.70
2022-10-01T13:23:48.272Z,17.50
2022-10-01T13:26:23.532Z,17.50
2022-10-01T13:29:10.103Z,17.50
2022-10-01T13:31:52.986Z,17.50
2022-10-01T13:34:35.167Z,17.50
2022-10-01T13:37:17.016Z,17.40
2022-10-01T13:39:48.387Z,17.30
2022-10-01T13:42:26.193Z,17.30
2022-10-01T13:44:58.324Z,17.30
2022-10-01T13:47:27.964Z,17.30
2022-10-01T13:50:04.065Z,17.30
2022-10-01T13:52:33.914Z,17.30
2022-10-01T13:55:04.654Z,17.30
2022-10-01T13:57:37.314Z,17.30
2022-10-01T14:00:24.366Z,17.40
2022-10-01T14:03:08.036Z,17.30
2022-10-01T14:05:43.581Z,17.30
2022-10-01T14:08:19.267Z,17.20
2022-10-01T14:11:14.394Z,17.20
2022-10-01T14:14:06.025Z,17.30
2022-10-01T14:16:40.731Z,17.40
2022-10-01T14:19:11.346Z,17.40
2022-10-01T14:21:56.663Z,17.40
2022-10-01T14:24:38.927Z,17.40
2022-10-01T14:27:22.104Z,17.40
2022-10-01T14:30:07.033Z,17.50
2022-10-01T14:32:59.840Z,17.40
2022-10-01T14:35:38.005Z,17.40
2022-10-01T14:38:14.706Z,17.40
2022-10-01T14:40:46.948Z,17.30
2022-10-01T14:43:23.310Z,17.30
2022-10-01T14:45:55.077Z,17.30
2022-10-01T14:48:24.172Z,17.20
2022-10-01T14:50:55.743Z,17.20
2022-10-01T14:53:27.923Z,17.20
2022-10-01T14:56:02.500Z,17.30
2022-10-01T14:58:37.030Z,17.20
2022-10-01T15:01:07.899Z,17.20
2022-10-01T15:03:41.983Z,17.20
2022-10-01T15:06:16.170Z,17.10
2022-10-01T15:08:47.798Z,17.10
2022-10-01T15:11:21.098Z,17.10
2022-10-01T15:13:55.797Z,17.00
2022-10-01T15:16:29.207Z,17.00
2022-10-01T15:19:02.605Z,16.90
2022-10-01T15:21:38.623Z,16.90
2022-10-01T15:24:20.426Z,16.80
2022-10-01T15:26:50.816Z,16.80
2022-10-01T15:29:21.441Z,16.80
2022-10-01T15:31:53.268Z,16.80
2022-10-01T15:34:25.342Z,16.80
2022-10-01T15:36:55.521Z,16.70
2022-10-01T15:39:33.271Z,16.60
2022-10-01T15:42:08.980Z,16.60
2022-10-01T15:44:48.292Z,16.60
2022-10-01T15:47:36.308Z,16.60
2022-10-01T15:50:20.323Z,16.60
2022-10-01T15:53:02.292Z,16.50
2022-10-01T15:55:39.834Z,16.40
2022-10-01T15:58:16.671Z,16.40
2022-10-01T16:01:02.537Z,16.40
2022-10-01T16:03:36.174Z,16.40
2022-10-01T16:06:08.892Z,16.30
2022-10-01T16:08:56.870Z,16.40
2022-10-01T16:11:31.724Z,16.40
2022-10-01T16:14:25.110Z,16.30
2022-10-01T16:17:30.340Z,16.30
2022-10-01T16:20:02.270Z,16.30
2022-10-01T16:22:33.568Z,16.30
2022-10-01T16:25:07.247Z,16.30
2022-10-01T16:27:46.209Z,16.20
2022-10-01T16:30:22.889Z,16.10
2022-10-01T16:32:53.260Z,16.10
2022-10-01T16:35:24.789Z,16.20
2022-10-01T16:37:56.168Z,16.00
2022-10-01T16:40:27.641Z,16.00
2022-10-01T16:42:56.848Z,16.00
2022-10-01T16:45:27.933Z,16.00
2022-10-01T16:47:58.346Z,15.90
2022-10-01T16:50:27.333Z,15.90
2022-10-01T16:52:57.140Z,15.90
2022-10-01T16:55:30.727Z,15.80
2022-10-01T16:57:59.437Z,15.90
2022-10-01T17:00:29.073Z,15.80
2022-10-01T17:03:00.376Z,15.70
2022-10-01T17:05:31.990Z,15.70
2022-10-01T17:08:03.488Z,15.60
2022-10-01T17:10:37.748Z,15.60
2022-10-01T17:13:06.503Z,15.50
2022-10-01T17:15:35.214Z,15.50
2022-10-01T17:18:05.423Z,15.50
2022-10-01T17:20:34.604Z,15.50
2022-10-01T17:23:03.381Z,15.60
2022-10-01T17:25:35.846Z,15.60
2022-10-01T17:28:08.172Z,15.50
2022-10-01T17:30:40.326Z,15.60
2022-10-01T17:33:14.090Z,15.50
2022-10-01T17:35:44.345Z,15.50
2022-10-01T17:38:14.109Z,15.40
2022-10-01T17:40:45.145Z,15.40
2022-10-01T17:43:15.687Z,15.40
2022-10-01T17:45:47.456Z,15.40
2022-10-01T17:48:21.587Z,15.40
2022-10-01T17:50:59.700Z,15.40
2022-10-01T17:53:34.081Z,15.40
2022-10-01T17:56:08.775Z,15.40
2022-10-01T17:58:40.608Z,15.40
2022-10-01T18:01:15.378Z,15.40
2022-10-01T18:03:45.529Z,15.50
2022-10-01T18:06:16.153Z,15.50
2022-10-01T18:08:55.092Z,15.40
2022-10-01T18:11:26.464Z,15.40
2022-10-01T18:13:55.140Z,15.40
2022-10-01T18:16:24.754Z,15.50
2022-10-01T18:21:51.097Z,15.30
2022-10-01T18:24:20.122Z,15.20
2022-10-01T18:26:49.123Z,15.10
2022-10-01T18:29:21.250Z,15.10
2022-10-01T18:31:54.050Z,15.10
2022-10-01T18:34:32.636Z,15.00
2022-10-01T18:37:07.268Z,15.00
2022-10-01T18:39:42.087Z,14.90
2022-10-01T18:42:22.571Z,14.90
2022-10-01T18:44:57.000Z,14.80
2022-10-01T18:47:43.255Z,14.80
2022-10-01T18:50:31.675Z,14.80
2022-10-01T18:53:22.407Z,14.70
2022-10-01T18:56:19.292Z,14.70
2022-10-01T18:59:24.657Z,14.60
2022-10-01T19:02:22.715Z,14.60
2022-10-01T19:05:49.175Z,14.60
2022-10-01T19:08:42.170Z,14.50
2022-10-01T19:11:25.375Z,14.50
2022-10-01T19:14:09.241Z,14.50
2022-10-01T19:16:52.295Z,14.50
2022-10-01T19:19:37.737Z,14.60
2022-10-01T19:22:21.879Z,14.60
2022-10-01T19:25:07.824Z,14.60
2022-10-01T19:28:00.172Z,14.60
2022-10-01T19:30:39.747Z,14.70
2022-10-01T19:33:14.481Z,14.80
2022-10-01T19:35:51.817Z,14.80
2022-10-01T19:38:30.680Z,14.70
2022-10-01T19:41:07.330Z,14.60
2022-10-01T19:43:49.979Z,14.60
2022-10-01T19:46:26.590Z,14.60
2022-10-01T19:49:05.449Z,14.60
2022-10-01T19:51:38.841Z,14.50
2022-10-01T19:54:18.125Z,14.50
2022-10-01T19:56:52.502Z,14.40
2022-10-01T19:59:22.530Z,14.40
2022-10-01T20:02:02.645Z,14.40
2022-10-01T20:04:39.409Z,14.40
2022-10-01T20:07:18.775Z,14.40
2022-10-01T20:10:04.358Z,14.30
2022-10-01T20:12:48.008Z,14.40
2022-10-01T20:15:29.745Z,14.40
2022-10-01T20:18:15.211Z,14.30
2022-10-01T20:20:58.184Z,14.30
2022-10-01T20:23:46.842Z,14.30
2022-10-01T20:26:30.881Z,14.20
2022-10-01T20:29:43.507Z,14.20
2022-10-01T20:32:20.875Z,14.10
2022-10-01T20:35:10.121Z,14.10
2022-10-01T20:37:55.791Z,14.00
2022-10-01T20:40:30.095Z,14.00
2022-10-01T20:43:07.412Z,14.10
2022-10-01T20:45:37.219Z,14.00
2022-10-01T20:48:14.675Z,14.00
2022-10-01T20:50:47.460Z,14.00
2022-10-01T20:53:30.420Z,14.00
2022-10-01T20:56:10.858Z,14.00
2022-10-01T20:58:49.306Z,14.00
2022-10-01T21:01:23.964Z,14.00
2022-10-01T21:04:02.592Z,14.00
2022-10-01T21:06:38.649Z,14.10
2022-10-01T21:09:19.407Z,14.00
2022-10-01T21:11:56.105Z,14.00
2022-10-01T21:14:33.167Z,14.00
2022-10-01T21:17:23.804Z,14.10
2022-10-01T21:20:12.905Z,14.00
2022-10-01T21:23:03.193Z,14.00
2022-10-01T21:25:52.634Z,14.00
2022-10-01T21:28:43.272Z,14.00
2022-10-01T21:31:35.028Z,14.00
2022-10-01T21:34:12.922Z,14.00
2022-10-01T21:37:02.526Z,14.00
2022-10-01T21:39:38.735Z,14.00
2022-10-01T21:42:17.361Z,14.00
2022-10-01T21:45:22.474Z,13.90
2022-10-01T21:48:19.485Z,13.90
2022-10-01T21:50:55.640Z,13.90
2022-10-01T21:53:51.075Z,13.90
2022-10-01T21:56:48.278Z,13.80
2022-10-01T21:59:41.037Z,13.80
2022-10-01T22:02:30.329Z,13.80
2022-10-01T22:05:07.925Z,13.80
2022-10-01T22:07:49.861Z,13.70
2022-10-01T22:10:26.964Z,13.70
2022-10-01T22:13:01.564Z,13.70
2022-10-01T22:15:40.669Z,13.70
2022-10-01T22:18:19.445Z,13.70
2022-10-01T22:20:51.253Z,13.70
2022-10-01T22:23:21.009Z,13.70
2022-10-01T22:25:58.143Z,13.60
2022-10-01T22:28:36.287Z,13.60
2022-10-01T22:31:11.941Z,13.60
2022-10-01T22:33:49.989Z,13.60
2022-10-01T22:36:30.263Z,13.70
2022-10-01T22:39:08.184Z,13.70
2022-10-01T22:41:43.522Z,13.70
2022-10-01T22:44:16.185Z,13.70
2022-10-01T22:47:13.963Z,13.70
2022-10-01T22:50:19.035Z,13.70
2022-10-01T22:53:07.878Z,13.70
2022-10-01T22:55:48.505Z,13.80
2022-10-01T22:58:39.412Z,13.80
2022-10-01T23:01:19.570Z,13.90
2022-10-01T23:04:02.556Z,13.90
2022-10-01T23:06:42.268Z,13.80
2022-10-01T23:09:21.660Z,13.70
2022-10-01T23:12:06.038Z,13.70
2022-10-01T23:15:08.087Z,13.70
2022-10-01T23:17:43.523Z,13.60
2022-10-01T23:20:26.256Z,13.60
2022-10-01T23:23:18.591Z,13.60
2022-10-01T23:26:22.041Z,13.60
2022-10-01T23:29:08.091Z,13.60
2022-10-01T23:31:46.352Z,13.60
2022-10-01T23:34:39.042Z,13.60
2022-10-01T23:37:32.013Z,13.60
2022-10-01T23:40:08.182Z,13.60
2022-10-01T23:42:47.909Z,13.60
2022-10-01T23:45:26.198Z,13.60
2022-10-01T23:48:05.567Z,13.60
2022-10-01T23:50:42.640Z,13.60
2022-10-01T23:53:18.676Z,13.60
2022-10-01T23:56:15.741Z,13.60
2022-10-01T23:58:51.775Z,13.60
